createdAt,value
2023-02-11T00:00:21.904Z,6.88
2023-02-11T00:02:48.462Z,6.63
2023-02-11T00:05:15.577Z,6.63
2023-02-11T00:07:42.212Z,7.08
2023-02-11T00:10:09.114Z,7.25
2023-02-11T00:12:36.316Z,7.62
2023-02-11T00:15:03.282Z,7.07
2023-02-11T00:17:29.945Z,7.58
2023-02-11T00:19:56.584Z,7.47
2023-02-11T00:22:23.555Z,7.22
2023-02-11T00:24:50.163Z,6.76
2023-02-11T00:27:16.707Z,6.62
2023-02-11T00:29:43.308Z,6.62
2023-02-11T00:32:10.711Z,7.14
2023-02-11T00:34:38.277Z,7.76
2023-02-11T00:37:05.453Z,7.93
2023-02-11T00:39:32.262Z,7.78
2023-02-11T00:41:59.284Z,8.02
2023-02-11T00:44:25.883Z,7.46
2023-02-11T00:46:52.437Z,7.26
2023-02-11T00:49:19.178Z,7.20
2023-02-11T00:51:45.747Z,7.69
2023-02-11T00:54:12.377Z,8.01
2023-02-11T00:56:38.960Z,7.80
2023-02-11T00:59:05.496Z,7.90
2023-02-11T01:01:32.100Z,7.80
2023-02-11T01:03:58.774Z,7.92
2023-02-11T01:06:25.381Z,7.92
2023-02-11T01:08:52.069Z,7.41
2023-02-11T01:11:20.854Z,7.81
2023-02-11T01:13:49.285Z,7.29
2023-02-11T01:16:17.261Z,7.38
2023-02-11T01:18:44.366Z,7.24
2023-02-11T01:21:11.662Z,7.19
2023-02-11T01:23:38.382Z,7.01
2023-02-11T01:26:05.905Z,8.02
2023-02-11T01:28:33.290Z,7.64
2023-02-11T01:31:01.073Z,7.68
2023-02-11T01:33:27.672Z,6.68
2023-02-11T01:35:54.449Z,7.04
2023-02-11T01:38:26.297Z,6.85
2023-02-11T01:41:03.687Z,7.42
2023-02-11T01:43:41.286Z,7.94
2023-02-11T01:46:26.372Z,7.57
2023-02-11T01:49:09.657Z,6.95
2023-02-11T01:51:49.630Z,7.14
2023-02-11T01:54:42.841Z,7.57
2023-02-11T01:57:24.619Z,7.31
2023-02-11T02:00:11.525Z,6.93
2023-02-11T02:03:08.157Z,7.00
2023-02-11T02:06:22.325Z,7.37
2023-02-11T02:09:01.730Z,7.29
2023-02-11T02:11:28.324Z,6.77
2023-02-11T02:13:55.047Z,7.31
2023-02-11T02:16:29.378Z,7.78
2023-02-11T02:19:24.687Z,8.15
2023-02-11T02:22:33.231Z,8.30
2023-02-11T02:25:22.735Z,7.15
2023-02-11T02:28:18.024Z,7.45
2023-02-11T02:30:59.167Z,7.79
2023-02-11T02:33:41.291Z,6.76
2023-02-11T02:36:21.176Z,7.07
2023-02-11T02:39:05.688Z,6.83
2023-02-11T02:41:35.899Z,7.05
2023-02-11T02:44:02.595Z,7.34
2023-02-11T02:46:32.314Z,7.41
2023-02-11T02:49:00.037Z,7.37
2023-02-11T02:52:01.965Z,7.05
2023-02-11T02:55:07.195Z,7.40
2023-02-11T02:57:45.724Z,7.13
2023-02-11T03:00:29.704Z,7.67
2023-02-11T03:03:34.776Z,8.00
2023-02-11T03:06:25.126Z,7.27
2023-02-11T03:09:00.837Z,7.89
2023-02-11T03:11:29.170Z,8.00
2023-02-11T03:13:58.164Z,7.50
2023-02-11T03:16:28.966Z,7.10
2023-02-11T03:19:19.778Z,7.74
2023-02-11T03:21:47.259Z,7.75
2023-02-11T03:24:25.926Z,8.27
2023-02-11T03:27:01.537Z,7.77
2023-02-11T03:29:39.061Z,8.05
2023-02-11T03:32:25.332Z,8.24
2023-02-11T03:35:14.469Z,8.33
2023-02-11T03:37:51.405Z,8.22
2023-02-11T03:40:29.600Z,8.50
2023-02-11T03:43:08.675Z,8.87
2023-02-11T03:45:38.440Z,8.62
2023-02-11T03:48:25.826Z,8.31
2023-02-11T03:50:56.111Z,9.14
2023-02-11T03:53:23.007Z,9.36
2023-02-11T03:55:53.995Z,9.52
2023-02-11T03:58:20.849Z,9.69
2023-02-11T04:00:47.445Z,9.86
2023-02-11T04:03:14.474Z,10.21
2023-02-11T04:05:41.113Z,10.00
2023-02-11T04:08:08.285Z,9.82
2023-02-11T04:10:35.088Z,10.40
2023-02-11T04:13:01.736Z,10.60
2023-02-11T04:15:28.273Z,10.84
2023-02-11T04:17:54.871Z,10.94
2023-02-11T04:20:21.438Z,11.15
2023-02-11T04:22:48.254Z,10.95
2023-02-11T04:25:14.842Z,11.13
2023-02-11T04:27:41.368Z,11.39
2023-02-11T04:30:08.747Z,12.08
2023-02-11T04:32:35.332Z,11.94
2023-02-11T04:35:02.827Z,12.09
2023-02-11T04:37:29.473Z,12.27
2023-02-11T04:39:55.986Z,12.20
2023-02-11T04:42:22.543Z,13.06
2023-02-11T04:44:49.102Z,13.33
2023-02-11T04:47:15.823Z,12.96
2023-02-11T04:49:42.452Z,14.86
2023-02-11T04:52:09.065Z,14.86
2023-02-11T04:54:35.612Z,14.07
2023-02-11T04:57:02.610Z,14.94
2023-02-11T04:59:29.563Z,15.20
2023-02-11T05:01:56.155Z,15.35
2023-02-11T05:04:23.901Z,15.48
2023-02-11T05:06:50.600Z,15.86
2023-02-11T05:09:17.758Z,16.02
2023-02-11T05:11:44.490Z,16.24
2023-02-11T05:14:11.041Z,16.17
2023-02-11T05:16:37.661Z,16.55
2023-02-11T05:19:04.633Z,16.81
2023-02-11T05:21:31.314Z,17.05
2023-02-11T05:23:58.254Z,16.27
2023-02-11T05:26:25.646Z,16.76
2023-02-11T05:28:52.277Z,16.96
2023-02-11T05:31:18.935Z,17.69
2023-02-11T05:33:45.764Z,17.10
2023-02-11T05:36:13.686Z,17.02
2023-02-11T05:38:42.408Z,16.62
2023-02-11T05:41:09.661Z,17.41
2023-02-11T05:43:36.639Z,17.58
2023-02-11T05:46:04.405Z,16.58
2023-02-11T05:48:31.540Z,17.71
2023-02-11T05:50:58.655Z,18.73
2023-02-11T05:53:25.322Z,18.18
2023-02-11T05:55:52.216Z,17.62
2023-02-11T05:58:19.058Z,17.67
2023-02-11T06:00:45.644Z,17.84
2023-02-11T06:03:12.430Z,17.27
2023-02-11T06:05:39.079Z,17.79
2023-02-11T06:08:05.695Z,18.09
2023-02-11T06:10:32.209Z,18.59
2023-02-11T06:12:58.807Z,19.21
2023-02-11T06:15:25.349Z,18.83
2023-02-11T06:17:52.342Z,18.97
2023-02-11T06:20:19.405Z,20.63
2023-02-11T06:22:46.682Z,20.46
2023-02-11T06:25:13.534Z,19.88
2023-02-11T06:27:40.114Z,20.35
2023-02-11T06:30:09.968Z,20.39
2023-02-11T06:32:44.680Z,20.66
2023-02-11T06:35:12.647Z,20.78
2023-02-11T06:37:40.488Z,20.94
2023-02-11T06:40:07.860Z,21.13
2023-02-11T06:42:36.157Z,20.58
2023-02-11T06:45:05.937Z,20.41
2023-02-11T06:47:32.572Z,20.89
2023-02-11T06:49:59.145Z,22.53
2023-02-11T06:52:25.750Z,21.53
2023-02-11T06:54:52.290Z,21.28
2023-02-11T06:57:18.886Z,21.70
2023-02-11T06:59:45.523Z,22.29
2023-02-11T07:02:12.317Z,21.74
2023-02-11T07:04:41.958Z,21.99
2023-02-11T07:07:08.505Z,22.45
2023-02-11T07:09:35.116Z,22.79
2023-02-11T07:12:01.683Z,22.48
2023-02-11T07:14:28.259Z,23.02
2023-02-11T07:16:54.888Z,23.86
2023-02-11T07:19:21.502Z,22.29
2023-02-11T07:21:48.814Z,22.90
2023-02-11T07:24:15.669Z,24.02
2023-02-11T07:26:42.462Z,24.45
2023-02-11T07:29:09.158Z,24.05
2023-02-11T07:31:35.874Z,23.77
2023-02-11T07:34:02.700Z,24.85
2023-02-11T07:36:31.813Z,24.39
2023-02-11T07:38:58.827Z,24.76
2023-02-11T07:41:26.343Z,24.60
2023-02-11T07:43:53.747Z,24.83
2023-02-11T07:46:23.753Z,25.34
2023-02-11T07:48:51.592Z,25.29
2023-02-11T07:51:22.162Z,24.26
2023-02-11T07:53:48.968Z,25.49
2023-02-11T07:56:17.770Z,25.96
2023-02-11T07:58:44.730Z,25.83
2023-02-11T08:01:15.146Z,25.01
2023-02-11T08:03:42.754Z,26.80
2023-02-11T08:06:15.306Z,26.04
2023-02-11T08:08:42.772Z,25.30
2023-02-11T08:11:12.695Z,25.25
2023-02-11T08:13:39.606Z,24.85
2023-02-11T08:16:07.647Z,24.23
2023-02-11T08:18:35.265Z,25.08
2023-02-11T08:21:09.872Z,25.08
2023-02-11T08:23:38.198Z,24.60
2023-02-11T08:26:08.191Z,25.45
2023-02-11T08:28:40.160Z,25.44
2023-02-11T08:31:08.627Z,26.30
2023-02-11T08:33:35.321Z,26.31
2023-02-11T08:36:08.886Z,25.03
2023-02-11T08:38:35.543Z,25.96
2023-02-11T08:41:02.093Z,26.15
2023-02-11T08:43:28.962Z,25.84
2023-02-11T08:45:55.597Z,26.24
2023-02-11T08:48:22.216Z,26.48
2023-02-11T08:50:48.788Z,26.76
2023-02-11T08:53:15.327Z,26.20
2023-02-11T08:55:48.979Z,25.58
2023-02-11T08:58:18.101Z,26.56
2023-02-11T09:00:46.270Z,26.42
2023-02-11T09:03:15.312Z,26.37
2023-02-11T09:05:47.100Z,25.50
2023-02-11T09:08:14.629Z,24.93
2023-02-11T09:10:41.186Z,24.64
2023-02-11T09:13:08.566Z,24.65
2023-02-11T09:15:35.622Z,26.02
2023-02-11T09:18:03.477Z,24.56
2023-02-11T09:20:30.555Z,24.04
2023-02-11T09:22:59.222Z,24.55
2023-02-11T09:25:26.279Z,24.19
2023-02-11T09:27:53.780Z,25.85
2023-02-11T09:30:21.396Z,24.21
2023-02-11T09:32:48.024Z,23.82
2023-02-11T09:35:14.611Z,24.97
2023-02-11T09:37:41.117Z,23.68
2023-02-11T09:40:08.391Z,23.26
2023-02-11T09:42:50.840Z,23.25
2023-02-11T09:45:22.203Z,23.17
2023-02-11T09:48:05.126Z,23.07
2023-02-11T09:50:38.202Z,22.90
2023-02-11T09:53:17.926Z,21.12
2023-02-11T09:55:48.337Z,22.39
2023-02-11T09:58:21.708Z,21.96
2023-02-11T10:01:23.681Z,21.60
2023-02-11T10:04:05.270Z,21.80
2023-02-11T10:06:43.650Z,21.00
2023-02-11T10:09:37.832Z,21.82
2023-02-11T10:12:45.657Z,21.03
2023-02-11T10:15:32.019Z,21.47
2023-02-11T10:18:32.248Z,20.69
2023-02-11T10:21:37.989Z,19.93
2023-02-11T10:24:12.202Z,20.57
2023-02-11T10:26:40.862Z,19.76
2023-02-11T10:29:19.024Z,19.81
2023-02-11T10:31:47.769Z,20.52
2023-02-11T10:34:15.259Z,21.36
2023-02-11T10:36:44.406Z,19.12
2023-02-11T10:39:24.165Z,18.90
2023-02-11T10:41:57.053Z,19.89
2023-02-11T10:44:33.965Z,18.74
2023-02-11T10:47:09.264Z,17.81
2023-02-11T10:49:42.052Z,17.58
2023-02-11T10:52:17.818Z,17.95
2023-02-11T10:55:05.596Z,17.11
2023-02-11T10:57:49.776Z,16.74
2023-02-11T11:00:39.094Z,16.94
2023-02-11T11:03:20.250Z,16.73
2023-02-11T11:05:59.827Z,16.64
2023-02-11T11:08:48.209Z,16.72
2023-02-11T11:11:24.259Z,16.90
2023-02-11T11:13:53.536Z,16.31
2023-02-11T11:16:24.564Z,16.38
2023-02-11T11:19:13.597Z,15.42
2023-02-11T11:21:47.753Z,15.69
2023-02-11T11:24:19.669Z,15.34
2023-02-11T11:26:54.069Z,16.35
2023-02-11T11:29:57.976Z,15.55
2023-02-11T11:32:29.958Z,15.70
2023-02-11T11:35:02.609Z,15.45
2023-02-11T11:37:38.785Z,14.90
2023-02-11T11:40:10.228Z,14.67
2023-02-11T11:42:39.136Z,14.85
2023-02-11T11:45:22.889Z,14.54
2023-02-11T11:47:52.295Z,15.15
2023-02-11T11:50:35.017Z,14.65
2023-02-11T11:53:24.152Z,14.34
2023-02-11T11:55:59.921Z,14.40
2023-02-11T11:58:30.111Z,13.47
2023-02-11T12:01:30.507Z,13.63
2023-02-11T12:04:21.222Z,13.08
2023-02-11T12:06:57.213Z,12.35
2023-02-11T12:09:33.383Z,12.32
2023-02-11T12:12:26.607Z,11.88
2023-02-11T12:14:53.113Z,12.16
2023-02-11T12:17:37.102Z,11.80
2023-02-11T12:20:27.332Z,11.47
2023-02-11T12:23:04.227Z,11.26
2023-02-11T12:25:55.052Z,11.30
2023-02-11T12:28:40.231Z,10.99
2023-02-11T12:31:44.196Z,10.80
2023-02-11T12:34:38.256Z,10.90
2023-02-11T12:37:26.176Z,10.27
2023-02-11T12:40:11.044Z,9.79
2023-02-11T12:43:01.502Z,9.87
2023-02-11T12:45:42.782Z,10.03
2023-02-11T12:48:25.965Z,9.75
2023-02-11T12:51:09.885Z,9.71
2023-02-11T12:53:49.310Z,10.02
2023-02-11T12:56:26.897Z,10.03
2023-02-11T12:58:58.827Z,9.77
2023-02-11T13:01:33.737Z,9.82
2023-02-11T13:04:09.128Z,9.72
2023-02-11T13:06:42.164Z,10.24
2023-02-11T13:09:19.004Z,10.29
2023-02-11T13:11:51.849Z,10.10
2023-02-11T13:14:35.307Z,9.65
2023-02-11T13:17:13.081Z,9.44
2023-02-11T13:19:50.409Z,9.93
2023-02-11T13:22:24.203Z,10.06
2023-02-11T13:25:07.090Z,9.92
2023-02-11T13:27:46.182Z,10.08
2023-02-11T13:30:27.320Z,9.77
2023-02-11T13:32:53.878Z,9.63
2023-02-11T13:35:37.402Z,9.97
2023-02-11T13:38:25.518Z,9.15
2023-02-11T13:41:02.640Z,9.63
2023-02-11T13:43:33.053Z,9.59
2023-02-11T13:46:11.698Z,9.41
2023-02-11T13:48:47.692Z,9.63
2023-02-11T13:51:18.400Z,9.95
2023-02-11T13:53:50.427Z,9.62
2023-02-11T13:56:30.726Z,9.72
2023-02-11T13:59:01.970Z,10.31
2023-02-11T14:02:07.139Z,10.48
2023-02-11T14:04:52.524Z,9.93
2023-02-11T14:08:11.882Z,9.68
2023-02-11T14:10:40.942Z,9.52
2023-02-11T14:13:29.718Z,9.65
2023-02-11T14:16:31.665Z,9.59
2023-02-11T14:19:02.474Z,9.07
2023-02-11T14:21:29.669Z,9.33
2023-02-11T14:24:02.101Z,9.86
2023-02-11T14:26:43.880Z,9.66
2023-02-11T14:29:33.403Z,9.88
2023-02-11T14:32:27.017Z,9.55
2023-02-11T14:35:15.532Z,9.95
2023-02-11T14:38:07.488Z,9.58
2023-02-11T14:40:55.106Z,10.15
2023-02-11T14:43:31.854Z,9.51
2023-02-11T14:46:01.308Z,9.64
2023-02-11T14:48:32.192Z,9.79
2023-02-11T14:51:06.328Z,9.25
2023-02-11T14:53:35.068Z,9.26
2023-02-11T14:56:01.666Z,9.34
2023-02-11T14:58:32.895Z,9.78
2023-02-11T15:01:06.428Z,9.19
2023-02-11T15:03:37.752Z,8.96
2023-02-11T15:06:07.394Z,9.08
2023-02-11T15:08:38.289Z,8.62
2023-02-11T15:11:12.687Z,8.68
2023-02-11T15:13:39.521Z,9.05
2023-02-11T15:16:11.002Z,8.77
2023-02-11T15:18:43.701Z,8.66
2023-02-11T15:21:10.960Z,8.90
2023-02-11T15:23:39.006Z,8.76
2023-02-11T15:26:13.954Z,8.71
2023-02-11T15:28:52.127Z,8.69
2023-02-11T15:31:23.298Z,8.42
2023-02-11T15:33:51.554Z,8.26
2023-02-11T15:36:23.694Z,8.30
2023-02-11T15:39:16.111Z,8.02
2023-02-11T15:41:44.378Z,8.20
2023-02-11T15:44:32.055Z,8.50
2023-02-11T15:47:00.099Z,9.14
2023-02-11T15:49:27.331Z,8.84
2023-02-11T15:51:57.098Z,8.60
2023-02-11T15:54:29.395Z,8.68
2023-02-11T15:57:04.242Z,8.23
2023-02-11T15:59:41.090Z,8.29
2023-02-11T16:02:30.380Z,8.76
2023-02-11T16:05:26.110Z,8.89
2023-02-11T16:07:52.996Z,8.89
2023-02-11T16:10:29.847Z,8.82
2023-02-11T16:13:08.451Z,8.58
2023-02-11T16:15:35.003Z,8.33
2023-02-11T16:18:13.376Z,8.42
2023-02-11T16:20:40.340Z,8.79
2023-02-11T16:23:08.028Z,8.21
2023-02-11T16:25:35.721Z,8.49
2023-02-11T16:28:02.567Z,8.75
2023-02-11T16:30:32.750Z,8.23
2023-02-11T16:32:59.250Z,8.76
2023-02-11T16:35:26.026Z,8.56
2023-02-11T16:37:52.662Z,8.66
2023-02-11T16:40:19.258Z,8.03
2023-02-11T16:42:45.803Z,8.26
2023-02-11T16:45:12.442Z,8.34
2023-02-11T16:47:42.988Z,8.39
2023-02-11T16:50:19.011Z,8.49
2023-02-11T16:52:46.297Z,8.00
2023-02-11T16:55:13.180Z,7.99
2023-02-11T16:57:40.199Z,7.80
2023-02-11T17:00:08.070Z,8.16
2023-02-11T17:02:37.132Z,7.69
2023-02-11T17:05:07.437Z,7.78
2023-02-11T17:07:34.384Z,7.53
2023-02-11T17:10:01.256Z,7.79
2023-02-11T17:12:28.011Z,8.10
2023-02-11T17:14:54.838Z,8.04
2023-02-11T17:17:23.667Z,7.85
2023-02-11T17:19:51.058Z,8.39
2023-02-11T17:22:18.661Z,8.50
2023-02-11T17:24:45.281Z,9.09
2023-02-11T17:27:12.170Z,8.92
2023-02-11T17:29:38.681Z,9.02
2023-02-11T17:32:05.399Z,8.73
2023-02-11T17:34:32.444Z,8.88
2023-02-11T17:37:00.242Z,9.04
2023-02-11T17:39:27.519Z,9.46
2023-02-11T17:41:54.055Z,9.09
2023-02-11T17:44:20.625Z,9.55
2023-02-11T17:46:47.235Z,9.65
2023-02-11T17:49:13.825Z,9.81
2023-02-11T17:51:40.691Z,9.90
2023-02-11T17:54:14.255Z,19.21
2023-02-11T17:56:42.205Z,13.61
2023-02-11T17:59:10.709Z,24.90
2023-02-11T18:01:39.124Z,25.07
2023-02-11T18:04:06.878Z,16.20
2023-02-11T18:06:34.277Z,12.71
2023-02-11T18:09:02.419Z,11.24
2023-02-11T18:11:30.963Z,13.62
2023-02-11T18:14:02.149Z,12.66
2023-02-11T18:16:30.109Z,12.02
2023-02-11T18:18:58.310Z,11.25
2023-02-11T18:21:25.858Z,12.23
2023-02-11T18:23:52.492Z,12.22
2023-02-11T18:26:21.585Z,11.13
2023-02-11T18:28:48.350Z,10.85
2023-02-11T18:31:14.984Z,11.52
2023-02-11T18:33:42.561Z,11.16
2023-02-11T18:36:13.039Z,11.70
2023-02-11T18:38:40.897Z,11.37
2023-02-11T18:41:07.737Z,11.58
2023-02-11T18:43:35.378Z,12.05
2023-02-11T18:46:06.885Z,11.84
2023-02-11T18:48:33.540Z,12.62
2023-02-11T18:51:00.120Z,13.09
2023-02-11T18:53:26.736Z,12.43
2023-02-11T18:55:53.888Z,12.31
2023-02-11T18:58:21.327Z,11.68
2023-02-11T19:00:51.975Z,11.95
2023-02-11T19:03:18.589Z,14.65
2023-02-11T19:05:48.140Z,12.94
2023-02-11T19:08:15.229Z,12.53
2023-02-11T19:10:44.404Z,11.61
2023-02-11T19:13:10.985Z,23.61
2023-02-11T19:15:45.310Z,23.06
2023-02-11T19:18:13.178Z,16.47
2023-02-11T19:20:42.049Z,13.60
2023-02-11T19:23:08.651Z,12.32
2023-02-11T19:25:35.420Z,12.46
2023-02-11T19:28:03.256Z,12.49
2023-02-11T19:30:30.026Z,12.54
2023-02-11T19:32:57.618Z,12.14
2023-02-11T19:35:25.342Z,11.68
2023-02-11T19:37:51.981Z,12.33
2023-02-11T19:40:21.110Z,11.95
2023-02-11T19:42:47.906Z,12.30
2023-02-11T19:45:14.488Z,11.93
2023-02-11T19:47:41.058Z,11.62
2023-02-11T19:50:08.612Z,11.92
2023-02-11T19:52:38.213Z,11.93
2023-02-11T19:55:05.064Z,11.88
2023-02-11T19:57:31.638Z,11.74
2023-02-11T19:59:58.252Z,14.53
2023-02-11T20:02:24.844Z,13.53
2023-02-11T20:04:51.510Z,12.28
2023-02-11T20:07:18.098Z,11.89
2023-02-11T20:09:44.672Z,12.25
2023-02-11T20:12:12.071Z,12.30
2023-02-11T20:14:38.783Z,12.90
2023-02-11T20:17:05.418Z,12.27
2023-02-11T20:19:32.068Z,12.11
2023-02-11T20:21:58.642Z,12.30
2023-02-11T20:24:25.730Z,12.63
2023-02-11T20:26:55.627Z,12.00
2023-02-11T20:29:23.373Z,12.36
2023-02-11T20:31:50.608Z,12.82
2023-02-11T20:34:18.129Z,11.72
2023-02-11T20:36:51.603Z,11.97
2023-02-11T20:39:19.217Z,12.47
2023-02-11T20:41:46.376Z,12.65
2023-02-11T20:44:13.511Z,12.42
2023-02-11T20:46:43.720Z,12.50
2023-02-11T20:49:12.865Z,12.35
2023-02-11T20:51:39.911Z,12.40
2023-02-11T20:54:07.422Z,11.98
2023-02-11T20:56:36.808Z,11.71
2023-02-11T20:59:04.322Z,12.72
2023-02-11T21:01:37.020Z,13.21
2023-02-11T21:04:19.433Z,12.39
2023-02-11T21:06:49.251Z,12.60
2023-02-11T21:09:25.022Z,12.21
2023-02-11T21:11:53.698Z,12.13
2023-02-11T21:14:22.498Z,12.70
2023-02-11T21:16:49.617Z,12.83
2023-02-11T21:19:16.770Z,13.39
2023-02-11T21:21:43.705Z,13.86
2023-02-11T21:24:11.305Z,13.72
2023-02-11T21:26:39.119Z,13.46
2023-02-11T21:29:07.504Z,13.31
2023-02-11T21:31:35.202Z,13.52
2023-02-11T21:34:01.997Z,12.99
2023-02-11T21:36:29.977Z,12.90
2023-02-11T21:38:56.833Z,12.54
2023-02-11T21:41:24.814Z,12.38
2023-02-11T21:43:52.299Z,12.13
2023-02-11T21:46:20.483Z,12.68
2023-02-11T21:48:47.783Z,12.36
2023-02-11T21:51:20.838Z,11.66
2023-02-11T21:53:47.853Z,11.82
2023-02-11T21:56:17.309Z,12.82
2023-02-11T21:58:45.624Z,12.56
2023-02-11T22:01:21.576Z,12.83
2023-02-11T22:03:48.220Z,12.95
2023-02-11T22:06:18.795Z,12.79
2023-02-11T22:08:45.375Z,12.81
2023-02-11T22:11:13.566Z,12.92
2023-02-11T22:13:41.100Z,13.36
2023-02-11T22:16:11.084Z,13.08
2023-02-11T22:18:38.221Z,12.82
2023-02-11T22:21:08.630Z,13.15
2023-02-11T22:23:36.089Z,13.09
2023-02-11T22:26:28.610Z,14.08
2023-02-11T22:28:55.990Z,13.85
2023-02-11T22:31:28.804Z,15.20
2023-02-11T22:33:56.516Z,15.28
2023-02-11T22:36:26.262Z,15.82
2023-02-11T22:38:53.553Z,16.34
2023-02-11T22:41:21.378Z,17.66
2023-02-11T22:43:48.347Z,17.74
2023-02-11T22:46:18.187Z,17.87
2023-02-11T22:48:45.812Z,18.63
2023-02-11T22:51:19.642Z,18.60
2023-02-11T22:54:01.353Z,19.65
2023-02-11T22:56:30.195Z,18.54
2023-02-11T22:59:01.378Z,18.85
2023-02-11T23:01:29.450Z,19.08
2023-02-11T23:03:56.112Z,18.74
2023-02-11T23:06:22.740Z,18.43
2023-02-11T23:08:49.316Z,18.50
2023-02-11T23:11:19.573Z,18.31
2023-02-11T23:13:48.122Z,18.22
2023-02-11T23:16:19.144Z,18.69
2023-02-11T23:18:47.386Z,18.06
2023-02-11T23:21:24.838Z,17.63
2023-02-11T23:24:01.773Z,17.94
2023-02-11T23:26:28.597Z,18.41
2023-02-11T23:28:57.222Z,19.21
2023-02-11T23:31:26.792Z,19.17
2023-02-11T23:33:53.885Z,18.78
2023-02-11T23:36:22.182Z,18.54
2023-02-11T23:38:48.906Z,18.53
2023-02-11T23:41:16.574Z,17.43
2023-02-11T23:43:43.116Z,18.71
2023-02-11T23:46:10.245Z,18.31
2023-02-11T23:48:37.681Z,19.12
2023-02-11T23:51:04.640Z,17.88
2023-02-11T23:53:31.209Z,18.78
2023-02-11T23:55:57.811Z,18.45
2023-02-11T23:58:24.554Z,19.64
